SBIP

Usiminas Airport

Airport
ICAO code
SBIP
IATA Code
IPN
Summary
ICAO Region
CARSAM
ICAO Territory
Location

Ipatinga, Minas Gerais

Serving
Ipatinga
Elevation
784 ft
Coordinates
19° 28' 14" S , 42° 29' 17" W
KCC
Metar
SBIP 191900Z AUTO 02004KT 330V080 CAVOK 29/11 Q1017

Usiminas Airport, also known as Steel Valley Regional Airport, is the airport serving Ipatinga, Brazil, located in the adjoining municipality of Santana do Paraíso.

Climatology

Tropical savanna climate (Köppen climate classification Aw)

Runways

Designator Length Width Surface Rops
5/23 2004 45 ASP No/No

Airport map

Aerial View

SKYbrary Partners:

Safety knowledge contributed by: